Terminal Aerodrome Forecast
Issued by NWS Shreveport, LA

Home | Current Version | Previous Version | Text Only | Print | Product List | Glossary On
Versions: 1 2 3 4 5 6 7 8 9 10 11 12 13 14 15 16 17 18
392
FTUS44 KSHV 010529
TAFTXK
TAF
KTXK 010529Z 0106/0206 25014G22KT P6SM SKC
     FM011000 24011G16KT P6SM SKC
     FM011300 24015G18KT P6SM SKC
     FM011600 27015G22KT P6SM SKC
     FM020100 26006KT P6SM BKN060=

USA.gov is the U.S. government's official web portal to all federal, state and local government web resources and services.